Time;durP1;ratioP1;P1;durP2;ratioP2;P2;SDS_P1;SDS_P2;PMS_P1;PMS_P2;Temp;Humidity;BMP_temperature;BMP_pressure;BME280_temperature;BME280_humidity;BME280_pressure;Samples;Min_cycle;Max_cycle;Signal;HPM_P1;HPM_P2
2021/08/04 00:00:45;;;;;;;4.68;2.22;;;;;;;17.43;97.38;100759.69;5072447;28;20409;-74
2021/08/04 00:03:11;;;;;;;4.22;2.40;;;;;;;17.44;98.29;100766.69;5036445;28;20033;-76
2021/08/04 00:05:36;;;;;;;3.58;2.17;;;;;;;17.35;97.38;100758.16;5071631;28;20479;-76
2021/08/04 00:08:02;;;;;;;2.63;2.42;;;;;;;17.34;97.44;100764.78;5054314;28;20029;-75
2021/08/04 00:10:28;;;;;;;2.80;2.10;;;;;;;17.50;97.39;100763.16;5072372;28;20032;-74
2021/08/04 00:12:54;;;;;;;4.10;1.90;;;;;;;17.54;97.22;100769.34;5061293;28;20039;-75
2021/08/04 00:15:19;;;;;;;2.25;2.00;;;;;;;17.46;96.43;100767.81;5065870;28;20512;-75
2021/08/04 00:17:46;;;;;;;3.65;2.00;;;;;;;17.46;96.23;100762.38;5072116;28;20477;-76
2021/08/04 00:20:13;;;;;;;1.98;1.80;;;;;;;17.44;95.67;100766.69;5079965;28;20040;-76
2021/08/04 00:22:39;;;;;;;2.08;1.77;;;;;;;17.31;96.32;100760.91;5064373;28;20086;-75
2021/08/04 00:25:05;;;;;;;2.22;1.65;;;;;;;17.41;97.58;100759.28;5070916;28;20032;-74
2021/08/04 00:27:30;;;;;;;2.08;1.70;;;;;;;17.41;97.73;100762.00;5072193;28;20043;-74
2021/08/04 00:29:56;;;;;;;2.70;1.90;;;;;;;17.57;97.36;100765.84;5061148;28;20033;-75
2021/08/04 00:32:22;;;;;;;3.92;1.80;;;;;;;17.46;97.18;100761.63;5067598;28;20047;-75
2021/08/04 00:34:48;;;;;;;3.20;1.88;;;;;;;17.41;97.19;100764.75;5070911;28;20029;-77
2021/08/04 00:37:14;;;;;;;2.15;1.70;;;;;;;17.39;97.39;100756.97;5045105;28;20432;-75
2021/08/04 00:39:40;;;;;;;7.75;1.85;;;;;;;17.31;97.05;100760.91;5058036;28;20032;-75
2021/08/04 00:42:06;;;;;;;2.92;1.60;;;;;;;17.34;96.88;100762.84;5047594;28;20067;-76
2021/08/04 00:44:32;;;;;;;2.30;1.80;;;;;;;17.49;96.46;100758.13;5043993;28;20097;-75
2021/08/04 00:46:58;;;;;;;11.55;1.90;;;;;;;17.50;95.94;100751.50;5050091;28;20025;-76
2021/08/04 00:49:24;;;;;;;2.25;1.60;;;;;;;17.42;95.93;100758.13;5037755;28;20074;-75
2021/08/04 00:51:49;;;;;;;2.13;1.60;;;;;;;17.38;96.44;100760.84;5053662;28;20036;-74
2021/08/04 00:54:15;;;;;;;2.63;1.70;;;;;;;17.46;96.25;100756.91;5059212;28;20028;-74
2021/08/04 00:56:41;;;;;;;5.57;1.80;;;;;;;17.55;96.75;100754.59;5069984;28;20031;-75
2021/08/04 00:59:10;;;;;;;3.00;1.90;;;;;;;17.56;95.48;100756.13;5053383;28;20036;-75
2021/08/04 01:01:43;;;;;;;3.30;1.80;;;;;;;17.59;95.10;100755.34;5071557;28;20039;-75
2021/08/04 01:04:30;;;;;;;3.10;1.85;;;;;;;17.58;95.12;100758.44;5049747;28;20036;-75
2021/08/04 01:07:21;;;;;;;2.92;1.67;;;;;;;17.60;94.53;100762.31;5050444;28;20032;-75
2021/08/04 01:10:01;;;;;;;2.75;1.90;;;;;;;17.61;94.39;100763.09;5052681;28;20111;-75
2021/08/04 01:12:35;;;;;;;1.70;1.52;;;;;;;17.74;93.91;100751.34;5059309;28;20067;-75
2021/08/04 01:15:05;;;;;;;3.42;1.55;;;;;;;17.76;93.77;100762.59;5047264;28;20036;-74
2021/08/04 01:17:32;;;;;;;3.72;1.60;;;;;;;17.75;93.66;100757.56;5066669;28;20037;-74
2021/08/04 01:20:08;;;;;;;1.52;1.42;;;;;;;17.64;95.14;100760.34;5016885;28;20032;-75
2021/08/04 01:23:16;;;;;;;2.80;1.95;;;;;;;17.43;95.12;100754.22;5049317;28;20028;-75
2021/08/04 01:25:53;;;;;;;3.20;1.85;;;;;;;17.46;95.62;100759.66;4975496;28;20089;-75
2021/08/04 01:28:27;;;;;;;2.22;1.80;;;;;;;17.67;94.39;100759.53;4990455;28;20026;-74
2021/08/04 01:31:00;;;;;;;3.22;1.60;;;;;;;17.71;95.04;100756.81;5038877;28;20040;-75
2021/08/04 01:33:28;;;;;;;2.65;2.10;;;;;;;17.68;94.88;100761.09;5047365;28;20033;-76
2021/08/04 01:35:56;;;;;;;5.82;1.80;;;;;;;17.65;95.48;100761.13;5060773;28;20028;-76
2021/08/04 01:38:23;;;;;;;7.40;2.00;;;;;;;17.53;96.14;100756.94;5055317;28;20042;-75
2021/08/04 01:40:50;;;;;;;2.08;1.60;;;;;;;17.50;95.76;100757.72;5052410;28;20090;-75
2021/08/04 01:43:19;;;;;;;5.28;1.70;;;;;;;17.41;95.92;100765.53;5064603;28;20067;-75
2021/08/04 01:45:45;;;;;;;3.25;1.63;;;;;;;17.37;96.58;100770.22;5067926;28;20039;-74
2021/08/04 01:48:11;;;;;;;4.38;1.80;;;;;;;17.45;96.54;100760.06;5069696;28;20085;-74
2021/08/04 01:50:37;;;;;;;3.03;1.80;;;;;;;17.41;95.77;100757.34;5046043;28;20029;-75
2021/08/04 01:53:04;;;;;;;2.22;1.80;;;;;;;17.40;97.00;100758.50;5047099;28;20032;-75
2021/08/04 01:55:29;;;;;;;4.32;1.80;;;;;;;17.46;96.60;100762.38;5048785;28;20032;-75
2021/08/04 01:57:56;;;;;;;4.10;2.00;;;;;;;17.38;96.52;100762.81;5069962;28;20024;-74
2021/08/04 02:00:21;;;;;;;2.22;1.60;;;;;;;17.35;96.37;100758.16;5051955;28;20044;-75
2021/08/04 02:02:47;;;;;;;1.45;1.35;;;;;;;17.23;97.32;100766.81;5041488;28;20028;-73
2021/08/04 02:05:12;;;;;;;2.88;2.03;;;;;;;17.17;97.77;100758.25;5065601;28;20031;-75
2021/08/04 02:07:56;;;;;;;1.75;1.52;;;;;;;17.14;98.00;100761.78;5044626;28;20040;-75
2021/08/04 02:10:28;;;;;;;4.18;1.85;;;;;;;17.28;97.00;100755.47;5066913;28;20032;-75
2021/08/04 02:13:00;;;;;;;2.22;1.58;;;;;;;17.40;96.82;100758.50;5063431;28;20021;-75
2021/08/04 02:15:30;;;;;;;2.53;1.80;;;;;;;17.37;96.80;100756.59;5042191;28;20452;-74
2021/08/04 02:18:03;;;;;;;4.78;2.00;;;;;;;17.28;97.83;100750.03;5048198;28;20036;-75
2021/08/04 02:20:35;;;;;;;2.47;1.75;;;;;;;17.37;97.51;100751.16;5069524;28;20032;-75
2021/08/04 02:23:03;;;;;;;2.33;1.70;;;;;;;17.31;97.57;100754.69;5049594;28;20505;-75
2021/08/04 02:25:33;;;;;;;5.32;1.75;;;;;;;17.33;97.63;100757.78;5048280;28;20052;-73
2021/08/04 02:28:01;;;;;;;2.67;1.88;;;;;;;17.22;97.16;100755.13;5047184;28;20497;-75
2021/08/04 02:30:30;;;;;;;2.47;1.92;;;;;;;17.17;96.05;100758.25;5068689;28;20036;-75
2021/08/04 02:32:56;;;;;;;3.35;1.70;;;;;;;17.20;95.03;100754.75;5048304;28;20074;-73
2021/08/04 02:35:22;;;;;;;2.65;1.92;;;;;;;17.22;95.63;100752.41;5049628;28;20029;-75
2021/08/04 02:37:49;;;;;;;3.83;1.92;;;;;;;17.28;95.28;100752.75;5051827;28;20036;-75
2021/08/04 02:40:15;;;;;;;6.85;1.67;;;;;;;17.39;94.41;100748.81;5046791;28;20075;-75
2021/08/04 02:42:42;;;;;;;4.03;1.50;;;;;;;17.47;94.26;100741.38;5069099;28;20484;-75
2021/08/04 02:45:08;;;;;;;2.60;1.67;;;;;;;17.41;93.51;100742.97;5050751;28;20037;-75
2021/08/04 02:47:36;;;;;;;5.13;1.75;;;;;;;17.33;94.40;100741.44;5046063;28;20029;-75
2021/08/04 02:50:04;;;;;;;3.03;1.58;;;;;;;17.29;94.71;100738.75;5055932;28;20089;-75
2021/08/04 02:52:31;;;;;;;2.10;1.90;;;;;;;17.22;94.16;100733.34;5028735;28;20036;-75
2021/08/04 02:54:57;;;;;;;3.25;1.90;;;;;;;17.27;95.13;100743.03;5064323;28;20056;-75
2021/08/04 02:57:22;;;;;;;1.92;1.70;;;;;;;17.40;93.99;100742.19;5045526;28;20048;-75
2021/08/04 02:59:48;;;;;;;2.20;2.00;;;;;;;17.39;93.53;100740.63;5046896;28;20572;-76
2021/08/04 03:02:13;;;;;;;3.75;2.08;;;;;;;17.35;93.96;100739.09;5046164;28;20040;-74
2021/08/04 03:04:39;;;;;;;3.22;1.77;;;;;;;17.31;94.40;100741.84;5058300;28;20048;-75
2021/08/04 03:07:04;;;;;;;6.63;2.03;;;;;;;17.28;95.44;100747.31;5069179;28;20470;-75
2021/08/04 03:09:30;;;;;;;2.08;1.88;;;;;;;17.13;95.84;100746.59;5061244;28;20385;-75
2021/08/04 03:11:56;;;;;;;3.70;2.25;;;;;;;17.09;96.69;100746.63;5052529;28;20052;-75
2021/08/04 03:14:22;;;;;;;3.97;2.00;;;;;;;17.12;97.76;100747.78;5068198;28;20035;-75
2021/08/04 03:16:47;;;;;;;4.35;2.10;;;;;;;17.10;97.84;100744.69;5050985;28;20025;-75
2021/08/04 03:19:14;;;;;;;3.97;2.28;;;;;;;17.08;97.66;100747.81;5065103;28;20402;-73
2021/08/04 03:21:40;;;;;;;2.17;1.92;;;;;;;17.11;97.56;100741.56;5069457;28;20504;-74
2021/08/04 03:24:05;;;;;;;3.50;2.10;;;;;;;17.06;97.61;100743.91;5068840;28;20089;-74
2021/08/04 03:26:31;;;;;;;2.28;1.98;;;;;;;17.00;99.36;100748.22;5051143;28;20029;-75
2021/08/04 03:28:56;;;;;;;4.38;1.75;;;;;;;17.05;98.05;100742.38;5065172;28;20039;-75
2021/08/04 03:31:22;;;;;;;4.70;2.30;;;;;;;17.00;98.02;100751.72;5058042;28;20033;-74
2021/08/04 03:33:47;;;;;;;2.47;1.77;;;;;;;16.98;98.08;100750.56;5062668;28;20033;-73
2021/08/04 03:36:13;;;;;;;2.80;2.20;;;;;;;17.08;97.95;100752.47;5058098;28;20055;-73
2021/08/04 03:38:38;;;;;;;2.20;2.00;;;;;;;17.08;97.42;100747.03;5047960;28;20036;-74
2021/08/04 03:41:04;;;;;;;2.17;1.92;;;;;;;17.16;97.66;100748.53;5054510;28;20041;-73
2021/08/04 03:43:29;;;;;;;2.90;2.35;;;;;;;17.11;96.71;100752.44;5062521;28;20040;-74
2021/08/04 03:45:55;;;;;;;4.32;2.20;;;;;;;17.14;96.65;100751.66;5066379;28;20119;-80
2021/08/04 03:48:20;;;;;;;2.13;1.92;;;;;;;17.07;95.28;100754.41;5071264;28;20028;-72
2021/08/04 03:50:46;;;;;;;5.45;1.83;;;;;;;17.12;95.50;100751.28;5070338;28;20119;-75
2021/08/04 03:53:11;;;;;;;6.38;2.45;;;;;;;17.16;95.96;100751.28;5072892;28;20143;-74
2021/08/04 03:55:37;;;;;;;3.55;2.13;;;;;;;17.22;95.60;100759.78;5071964;28;20052;-74
2021/08/04 03:58:02;;;;;;;3.20;2.30;;;;;;;17.16;95.79;100756.72;5071925;28;20417;-74
2021/08/04 04:00:27;;;;;;;3.63;2.17;;;;;;;17.23;96.05;100759.38;5055422;28;20045;-74
2021/08/04 04:02:53;;;;;;;4.85;2.60;;;;;;;17.17;95.08;100748.16;5034419;28;20016;-74
2021/08/04 04:05:18;;;;;;;3.00;2.58;;;;;;;17.31;95.20;100744.56;5071095;28;20064;-74
2021/08/04 04:07:44;;;;;;;5.40;2.60;;;;;;;17.39;94.96;100750.75;5071232;28;20045;-74
2021/08/04 04:10:10;;;;;;;6.80;3.00;;;;;;;17.25;95.76;100754.31;5053452;28;20032;-74
2021/08/04 04:12:35;;;;;;;7.30;2.88;;;;;;;17.26;96.20;100752.38;5072047;28;20115;-74
2021/08/04 04:15:02;;;;;;;5.55;2.97;;;;;;;17.21;95.64;100759.00;5071352;28;20441;-73
2021/08/04 04:17:28;;;;;;;6.90;3.20;;;;;;;17.14;96.75;100759.06;5071604;28;20029;-72
2021/08/04 04:19:53;;;;;;;7.93;3.65;;;;;;;17.13;97.12;100763.72;5060469;28;20400;-73
2021/08/04 04:22:19;;;;;;;5.03;3.08;;;;;;;17.17;95.98;100766.41;5055391;28;20052;-73
2021/08/04 04:24:45;;;;;;;4.65;3.47;;;;;;;17.14;95.62;100759.06;5056483;28;20032;-73
2021/08/04 04:27:10;;;;;;;5.88;3.25;;;;;;;17.09;96.31;100770.38;5050161;28;20021;-73
2021/08/04 04:29:37;;;;;;;4.53;3.00;;;;;;;17.04;96.13;100765.31;5061518;28;20535;-73
2021/08/04 04:32:03;;;;;;;4.15;2.80;;;;;;;17.03;95.42;100769.97;5054511;28;20061;-73
2021/08/04 04:34:29;;;;;;;3.95;2.67;;;;;;;17.12;95.38;100772.28;5055260;28;20041;-73
2021/08/04 04:36:54;;;;;;;5.88;2.72;;;;;;;16.97;96.09;100773.53;5063049;28;20111;-73
2021/08/04 04:39:20;;;;;;;5.03;2.83;;;;;;;17.02;96.86;100778.53;5071640;28;20116;-73
2021/08/04 04:41:45;;;;;;;2.90;2.60;;;;;;;17.02;97.73;100782.03;5071038;28;20097;-73
2021/08/04 04:44:11;;;;;;;3.78;2.75;;;;;;;17.06;97.51;100779.31;5064483;28;20032;-73
2021/08/04 04:46:36;;;;;;;6.88;2.72;;;;;;;17.20;96.52;100779.25;5064576;28;20489;-73
2021/08/04 04:49:01;;;;;;;4.18;2.70;;;;;;;17.26;96.48;100785.84;5058538;28;20029;-73
2021/08/04 04:51:27;;;;;;;6.80;2.90;;;;;;;17.16;96.45;100781.22;5062591;28;20046;-73
2021/08/04 04:53:52;;;;;;;5.85;2.75;;;;;;;17.11;95.01;100784.34;5069684;28;20120;-72
2021/08/04 04:56:18;;;;;;;6.95;2.92;;;;;;;17.26;93.92;100788.56;5057700;28;20027;-73
2021/08/04 04:58:43;;;;;;;5.80;2.35;;;;;;;17.35;94.17;100780.72;5070787;28;20020;-73
2021/08/04 05:01:09;;;;;;;5.20;3.05;;;;;;;17.28;94.26;100788.94;5056959;28;20112;-74
2021/08/04 05:03:34;;;;;;;6.63;2.60;;;;;;;17.29;94.09;100782.31;5046468;28;20086;-73
2021/08/04 05:05:59;;;;;;;5.68;2.47;;;;;;;17.30;93.99;100786.59;5057359;28;20508;-73
2021/08/04 05:08:25;;;;;;;4.88;2.58;;;;;;;17.37;93.50;100786.56;5055458;28;20032;-73
2021/08/04 05:10:50;;;;;;;3.80;2.35;;;;;;;17.36;92.86;100789.69;5058322;28;20035;-73
2021/08/04 05:13:16;;;;;;;6.38;2.50;;;;;;;17.33;93.97;100790.44;5067590;28;20037;-73
2021/08/04 05:15:42;;;;;;;3.03;2.25;;;;;;;17.38;93.37;100790.06;5063756;28;20036;-74
2021/08/04 05:18:07;;;;;;;2.70;2.10;;;;;;;17.38;94.29;100793.53;5051306;28;20032;-73
2021/08/04 05:20:33;;;;;;;8.13;2.50;;;;;;;17.36;93.86;100795.91;5058860;28;21381;-73
2021/08/04 05:22:58;;;;;;;4.05;2.53;;;;;;;17.41;93.70;100787.31;5059494;28;20112;-73
2021/08/04 05:25:26;;;;;;;6.18;2.53;;;;;;;17.38;93.94;100790.81;5069524;28;20032;-73
2021/08/04 05:27:52;;;;;;;5.40;2.50;;;;;;;17.42;93.77;100791.56;5059143;28;20508;-73
2021/08/04 05:30:18;;;;;;;4.32;2.53;;;;;;;17.53;92.85;100792.34;5069739;28;20024;-73
2021/08/04 05:32:43;;;;;;;4.22;2.50;;;;;;;17.58;92.09;100793.84;5070701;28;20032;-73
2021/08/04 05:35:09;;;;;;;3.42;2.40;;;;;;;17.60;92.08;100795.00;5044850;28;20041;-73
2021/08/04 05:37:38;;;;;;;3.60;2.22;;;;;;;17.70;92.10;100796.13;5070509;28;20025;-73
2021/08/04 05:40:04;;;;;;;7.93;2.67;;;;;;;17.74;92.81;100799.59;5069550;28;20055;-73
2021/08/04 05:42:29;;;;;;;6.70;2.10;;;;;;;17.86;90.59;100794.47;5040804;28;20028;-73
2021/08/04 05:44:55;;;;;;;4.10;2.03;;;;;;;18.01;90.57;100801.34;5038593;28;20700;-73
2021/08/04 05:47:20;;;;;;;3.85;2.15;;;;;;;17.98;92.11;100807.59;5041433;28;20554;-73
2021/08/04 05:49:48;;;;;;;5.22;2.17;;;;;;;18.05;91.27;100801.31;5052191;28;20032;-73
2021/08/04 05:52:13;;;;;;;4.35;2.15;;;;;;;18.00;92.14;100804.47;5056091;28;20028;-73
2021/08/04 05:54:39;;;;;;;6.38;2.20;;;;;;;18.09;91.60;100812.19;5055535;28;20045;-72
2021/08/04 05:57:04;;;;;;;2.72;2.13;;;;;;;18.22;90.23;100802.34;5044271;28;20033;-73
2021/08/04 05:59:30;;;;;;;3.35;1.98;;;;;;;18.19;90.02;100793.03;5045749;28;20090;-73
2021/08/04 06:01:55;;;;;;;4.07;2.28;;;;;;;18.24;89.50;100794.53;5067167;28;20527;-73
2021/08/04 06:04:21;;;;;;;2.65;1.80;;;;;;;18.22;88.92;100797.66;5069761;28;20044;-73
2021/08/04 06:06:48;;;;;;;3.33;1.70;;;;;;;18.26;88.76;100792.16;5060202;28;20494;-73
2021/08/04 06:09:13;;;;;;;2.92;1.98;;;;;;;18.21;88.49;100800.81;5067919;28;20024;-73
2021/08/04 06:11:38;;;;;;;3.97;1.88;;;;;;;18.29;88.16;100805.78;5057136;28;20518;-73
2021/08/04 06:14:04;;;;;;;2.63;1.75;;;;;;;18.40;86.91;100798.28;5037186;28;20025;-73
2021/08/04 06:16:29;;;;;;;5.38;1.75;;;;;;;18.50;86.68;100804.84;5046069;28;20043;-73
2021/08/04 06:18:56;;;;;;;1.92;1.70;;;;;;;18.59;86.22;100807.88;5058195;28;20040;-73
2021/08/04 06:21:21;;;;;;;2.15;1.55;;;;;;;18.68;85.14;100814.41;5056531;28;20045;-73
2021/08/04 06:23:48;;;;;;;2.05;1.77;;;;;;;18.68;85.90;100816.34;5056870;28;20062;-73
2021/08/04 06:26:16;;;;;;;4.47;1.92;;;;;;;18.84;84.61;100817.34;5055171;28;20381;-73
2021/08/04 06:28:43;;;;;;;4.28;1.73;;;;;;;18.97;85.42;100819.56;5055895;28;20037;-73
2021/08/04 06:31:08;;;;;;;3.38;1.70;;;;;;;18.90;86.17;100823.13;5055046;28;20059;-73
2021/08/04 06:33:34;;;;;;;4.00;1.88;;;;;;;19.09;85.57;100828.00;5052119;28;20488;-73
2021/08/04 06:35:59;;;;;;;4.80;1.65;;;;;;;19.20;85.10;100817.69;5052328;28;20496;-73
2021/08/04 06:38:24;;;;;;;2.60;1.80;;;;;;;19.29;83.61;100828.16;5063287;28;20663;-73
2021/08/04 06:40:50;;;;;;;1.70;1.60;;;;;;;19.49;82.91;100821.66;5066328;28;20078;-74
2021/08/04 06:43:17;;;;;;;1.55;1.40;;;;;;;19.68;82.39;100817.50;5051733;28;20039;-73
2021/08/04 06:45:43;;;;;;;2.28;1.40;;;;;;;19.74;80.81;100822.09;5051566;28;20035;-74
2021/08/04 06:48:10;;;;;;;2.53;1.67;;;;;;;19.86;81.03;100814.53;5035954;28;20032;-73
2021/08/04 06:50:36;;;;;;;3.97;1.38;;;;;;;19.81;80.64;100818.47;5054839;28;20068;-74
2021/08/04 06:53:01;;;;;;;2.28;1.30;;;;;;;19.79;79.79;100820.84;5052131;28;20043;-74
2021/08/04 06:55:27;;;;;;;2.95;1.50;;;;;;;19.83;80.36;100823.53;5056355;28;20032;-74
2021/08/04 06:57:52;;;;;;;3.67;1.30;;;;;;;19.91;80.69;100824.97;5060222;28;20035;-73
2021/08/04 07:00:18;;;;;;;2.08;1.25;;;;;;;19.84;80.18;100825.84;5069099;28;20044;-73
2021/08/04 07:02:43;;;;;;;2.33;1.38;;;;;;;19.78;80.68;100825.53;5052471;28;20040;-73
2021/08/04 07:05:09;;;;;;;4.90;1.33;;;;;;;19.86;79.14;100825.44;5064088;28;20459;-73
2021/08/04 07:07:34;;;;;;;1.50;1.23;;;;;;;19.79;78.21;100827.09;5046678;28;20048;-73
2021/08/04 07:10:00;;;;;;;5.75;1.60;;;;;;;19.78;79.73;100833.75;5068274;28;20110;-73
2021/08/04 07:12:25;;;;;;;3.25;1.20;;;;;;;19.75;80.79;100826.38;5042563;28;20056;-73
2021/08/04 07:14:51;;;;;;;2.22;1.40;;;;;;;19.72;81.41;100829.91;5056517;28;20114;-73
2021/08/04 07:17:17;;;;;;;1.98;1.45;;;;;;;19.75;81.58;100833.78;5049386;28;20048;-73
2021/08/04 07:19:43;;;;;;;1.48;1.27;;;;;;;19.76;80.25;100838.09;5051870;28;20032;-74
2021/08/04 07:22:09;;;;;;;2.22;1.58;;;;;;;19.67;81.04;100833.13;5065396;28;20112;-74
2021/08/04 07:24:34;;;;;;;2.33;1.40;;;;;;;19.70;81.46;100840.50;5070635;28;20491;-74
2021/08/04 07:27:03;;;;;;;3.05;1.55;;;;;;;19.65;82.67;100842.91;5059131;28;20124;-73
2021/08/04 07:29:28;;;;;;;1.77;1.30;;;;;;;19.65;83.33;100848.38;5056011;28;20045;-73
2021/08/04 07:31:54;;;;;;;2.05;1.70;;;;;;;19.56;82.62;100840.69;5060106;28;20035;-73
2021/08/04 07:34:24;;;;;;;1.75;1.20;;;;;;;19.63;82.72;100846.06;5059111;28;20037;-73
2021/08/04 07:36:49;;;;;;;4.45;1.70;;;;;;;19.67;83.35;100854.22;5038591;28;20773;-74
2021/08/04 07:39:15;;;;;;;2.63;1.33;;;;;;;19.80;82.67;100855.97;5064855;28;20036;-74
2021/08/04 07:41:41;;;;;;;2.25;1.20;;;;;;;19.76;82.79;100852.50;5055189;28;20036;-73
2021/08/04 07:44:06;;;;;;;1.58;1.15;;;;;;;19.82;81.84;100860.28;5062279;28;20024;-74
2021/08/04 07:46:32;;;;;;;2.53;1.65;;;;;;;19.93;80.43;100855.41;5052422;28;20041;-73
2021/08/04 07:48:57;;;;;;;1.85;1.13;;;;;;;19.93;80.68;100855.41;5064253;28;20093;-74
2021/08/04 07:51:23;;;;;;;1.33;1.20;;;;;;;19.96;80.26;100858.09;5067117;28;20036;-74
2021/08/04 07:53:48;;;;;;;3.08;1.35;;;;;;;19.73;80.16;100850.63;5071940;28;20032;-74
2021/08/04 07:56:19;;;;;;;1.73;1.20;;;;;;;19.78;80.94;100852.88;5071250;28;20028;-74
2021/08/04 07:58:46;;;;;;;2.20;1.30;;;;;;;19.64;81.13;100850.34;5061899;28;20440;-74
2021/08/04 08:01:11;;;;;;;1.55;1.20;;;;;;;19.74;81.25;100857.63;5053171;28;20032;-74
2021/08/04 08:03:36;;;;;;;3.22;1.35;;;;;;;19.84;81.21;100860.63;5053991;28;20409;-73
2021/08/04 08:06:02;;;;;;;2.30;1.30;;;;;;;19.78;81.81;100852.88;5071251;28;20037;-74
2021/08/04 08:08:27;;;;;;;3.58;1.55;;;;;;;19.85;81.26;100853.97;5058658;28;20471;-74
2021/08/04 08:10:53;;;;;;;3.33;1.45;;;;;;;19.85;79.51;100856.69;5046981;28;20060;-74
2021/08/04 08:13:20;;;;;;;2.58;1.50;;;;;;;19.83;79.74;100854.38;5067411;28;20052;-74
2021/08/04 08:15:46;;;;;;;2.05;1.45;;;;;;;19.83;80.00;100859.06;5053263;28;20036;-73
2021/08/04 08:18:12;;;;;;;2.13;1.20;;;;;;;19.79;79.97;100854.44;5071865;28;20480;-74
2021/08/04 08:20:40;;;;;;;4.45;1.50;;;;;;;19.66;81.28;100850.72;5054056;28;20591;-74
2021/08/04 08:23:06;;;;;;;2.95;1.50;;;;;;;19.83;81.00;100848.13;5063449;28;20041;-74
2021/08/04 08:25:32;;;;;;;2.05;1.50;;;;;;;19.80;81.18;100853.25;5066211;28;20036;-73
2021/08/04 08:27:59;;;;;;;1.85;1.40;;;;;;;19.84;80.59;100853.19;5071849;28;20109;-74
2021/08/04 08:30:26;;;;;;;1.65;1.23;;;;;;;19.72;80.99;100851.78;5053483;28;20566;-74
2021/08/04 08:32:53;;;;;;;3.00;1.30;;;;;;;19.74;82.06;100852.16;5071318;28;20024;-74
2021/08/04 08:35:19;;;;;;;1.88;1.50;;;;;;;19.77;81.97;100859.53;5046674;28;20037;-74
2021/08/04 08:37:46;;;;;;;2.70;1.10;;;;;;;19.94;81.27;100860.47;5070064;28;20028;-74
2021/08/04 08:40:12;;;;;;;1.70;1.50;;;;;;;19.98;82.33;100858.44;5068067;28;20050;-74
2021/08/04 08:42:42;;;;;;;3.05;1.65;;;;;;;20.04;81.82;100847.81;5067942;28;20043;-74
2021/08/04 08:45:09;;;;;;;1.90;1.23;;;;;;;20.16;82.90;100849.97;5051517;28;20036;-74
2021/08/04 08:47:34;;;;;;;4.63;1.60;;;;;;;20.20;82.78;100848.78;5049442;28;20326;-74
2021/08/04 08:50:01;;;;;;;3.25;1.45;;;;;;;20.25;82.04;100858.44;5071088;28;20044;-74
2021/08/04 08:52:27;;;;;;;3.70;2.35;;;;;;;20.26;81.07;100849.84;5048165;28;20032;-74
2021/08/04 08:54:53;;;;;;;2.97;1.70;;;;;;;20.41;81.11;100845.69;5067180;28;20031;-74
2021/08/04 08:57:18;;;;;;;2.78;1.88;;;;;;;20.47;80.15;100852.22;5070759;28;20116;-74
2021/08/04 08:59:43;;;;;;;7.30;1.77;;;;;;;;;;5059070;28;20035;-74
2021/08/04 09:02:09;;;;;;;4.90;2.08;;;;;;;20.61;80.34;100853.97;5054010;28;20111;-73
2021/08/04 09:04:35;;;;;;;8.35;1.85;;;;;;;20.63;80.45;100857.03;5048144;28;20064;-74
2021/08/04 09:07:01;;;;;;;4.80;1.70;;;;;;;20.71;81.77;100863.16;5061680;28;20548;-74
2021/08/04 09:09:32;;;;;;;2.88;1.73;;;;;;;20.66;81.51;100850.72;5048180;28;20025;-73
2021/08/04 09:12:24;;;;;;;1.98;1.50;;;;;;;20.62;79.71;100858.22;5058544;28;20127;-74
2021/08/04 09:14:50;;;;;;;2.55;1.60;;;;;;;20.79;79.80;100859.88;5039059;28;20083;-74
2021/08/04 09:17:17;;;;;;;1.60;1.50;;;;;;;20.78;81.21;100854.81;5059907;28;20051;-74
2021/08/04 09:19:44;;;;;;;1.50;1.20;;;;;;;20.84;80.11;100862.13;5053011;28;20480;-74
2021/08/04 09:22:09;;;;;;;4.75;1.67;;;;;;;20.91;76.58;100856.53;5059132;28;20146;-74
2021/08/04 09:25:07;;;;;;;2.38;1.80;;;;;;;20.91;77.18;100863.97;5055580;28;20070;-74
2021/08/04 09:27:46;;;;;;;2.30;1.70;;;;;;;20.97;76.65;100851.31;5052907;28;20473;-74
2021/08/04 09:30:22;;;;;;;4.35;1.80;;;;;;;20.95;78.10;100854.50;5048597;28;20247;-74
2021/08/04 09:32:48;;;;;;;3.13;2.00;;;;;;;21.03;79.45;100844.19;5070387;22;20040;-75
2021/08/04 09:35:22;;;;;;;2.30;1.60;;;;;;;21.00;77.28;100843.03;5040735;28;20064;-75
2021/08/04 09:37:48;;;;;;;2.22;1.73;;;;;;;21.02;77.73;100846.16;5032227;28;20041;-75
2021/08/04 09:40:19;;;;;;;3.40;1.60;;;;;;;21.12;78.24;100838.91;5049966;28;20111;-75
2021/08/04 09:42:48;;;;;;;1.85;1.58;;;;;;;21.16;79.90;100843.16;5024607;28;20029;-75
2021/08/04 09:45:15;;;;;;;3.30;1.45;;;;;;;21.30;80.22;100840.13;5036952;28;20061;-75
2021/08/04 09:47:59;;;;;;;4.32;1.90;;;;;;;21.40;78.19;100849.31;5043684;28;20540;-75
2021/08/04 09:50:25;;;;;;;5.35;1.70;;;;;;;21.37;77.26;100847.41;5043710;28;20029;-75
2021/08/04 09:52:53;;;;;;;2.85;1.50;;;;;;;21.54;77.09;100846.28;5048801;28;20512;-75
2021/08/04 09:55:19;;;;;;;6.05;1.55;;;;;;;21.65;78.53;100854.28;5056520;28;20029;-75
2021/08/04 09:57:47;;;;;;;2.00;1.42;;;;;;;21.72;78.40;100848.66;5049480;28;20029;-75
2021/08/04 10:00:15;;;;;;;2.55;1.35;;;;;;;21.73;78.38;100841.94;5045319;28;20025;-75
2021/08/04 10:02:41;;;;;;;1.67;1.30;;;;;;;21.74;79.16;100843.50;5028906;28;20029;-75
2021/08/04 10:05:32;;;;;;;5.03;1.70;;;;;;;21.64;78.51;100844.50;5048282;28;20197;-75
2021/08/04 10:07:59;;;;;;;3.70;1.75;;;;;;;21.66;80.53;100837.38;5043895;28;20045;-75
2021/08/04 10:10:25;;;;;;;5.65;1.90;;;;;;;21.66;79.53;100839.38;5044852;28;20036;-75
2021/08/04 10:12:51;;;;;;;2.85;1.50;;;;;;;21.63;78.48;100840.22;5052783;28;20389;-75
2021/08/04 10:15:16;;;;;;;4.30;1.60;;;;;;;21.57;79.04;100839.94;5048792;28;20477;-75
2021/08/04 10:17:43;;;;;;;3.05;1.60;;;;;;;21.52;78.53;100834.97;5024073;28;20033;-75
2021/08/04 10:20:09;;;;;;;1.63;1.45;;;;;;;21.51;77.67;100833.41;5046526;28;20033;-75
2021/08/04 10:22:36;;;;;;;2.17;1.63;;;;;;;21.52;78.54;100832.22;5042834;28;20039;-75
2021/08/04 10:25:03;;;;;;;3.42;1.50;;;;;;;21.50;78.20;100827.16;5038747;28;20138;-75
2021/08/04 10:27:29;;;;;;;1.95;1.60;;;;;;;21.54;77.83;100821.63;5046457;28;20037;-75
2021/08/04 10:29:54;;;;;;;2.28;1.50;;;;;;;21.65;78.71;100821.38;5035574;28;20037;-75
2021/08/04 10:32:20;;;;;;;2.92;1.90;;;;;;;21.68;77.78;100820.53;5044949;28;20040;-75
2021/08/04 10:34:46;;;;;;;1.90;1.52;;;;;;;21.75;79.16;100820.38;5047081;28;20104;-75
2021/08/04 10:37:12;;;;;;;2.03;1.48;;;;;;;21.85;76.84;100825.66;5036452;28;20362;-75
2021/08/04 10:39:37;;;;;;;5.88;1.70;;;;;;;22.10;75.95;100820.34;5030467;28;20044;-75
2021/08/04 10:42:09;;;;;;;5.68;1.52;;;;;;;22.47;75.85;100818.25;5035457;28;20024;-75
2021/08/04 10:44:36;;;;;;;3.28;1.88;;;;;;;22.83;74.40;100821.63;5037761;28;20400;-75
2021/08/04 10:47:04;;;;;;;1.75;1.50;;;;;;;23.24;73.13;100819.66;5051972;28;20090;-75
2021/08/04 10:49:35;;;;;;;5.00;1.55;;;;;;;23.78;74.12;100819.63;5030997;28;20037;-75
2021/08/04 10:52:00;;;;;;;3.63;1.38;;;;;;;24.20;72.13;100817.50;5022864;28;20429;-75
2021/08/04 10:54:28;;;;;;;1.73;1.50;;;;;;;24.60;71.08;100824.00;5037218;28;20102;-75
2021/08/04 10:56:54;;;;;;;2.55;1.50;;;;;;;24.85;66.19;100821.16;5040673;28;20342;-75
2021/08/04 10:59:19;;;;;;;1.75;1.40;;;;;;;25.17;64.79;100822.78;5029446;28;20037;-75
2021/08/04 11:01:53;;;;;;;4.05;1.70;;;;;;;25.05;60.93;100818.88;5031768;28;20033;-75
2021/08/04 11:04:27;;;;;;;3.72;1.50;;;;;;;25.00;62.29;100811.19;5044697;28;20033;-75
2021/08/04 11:07:08;;;;;;;3.63;1.52;;;;;;;25.20;62.65;100816.38;5036302;28;20037;-75
2021/08/04 11:09:46;;;;;;;5.30;1.70;;;;;;;25.32;60.06;100812.75;5043442;28;20051;-75
2021/08/04 11:12:27;;;;;;;3.75;1.45;;;;;;;25.21;61.54;100806.88;5043312;28;20112;-75
2021/08/04 11:14:58;;;;;;;2.95;1.73;;;;;;;25.01;62.27;100796.19;5031436;28;20040;-75
2021/08/04 11:17:52;;;;;;;3.72;1.60;;;;;;;25.09;63.27;100804.19;5058741;28;20493;-75
2021/08/04 11:20:17;;;;;;;1.30;1.20;;;;;;;24.94;62.26;100795.66;5050016;28;20179;-76
2021/08/04 11:22:48;;;;;;;2.28;1.38;;;;;;;25.23;64.81;100790.63;5047135;28;20100;-75
2021/08/04 11:25:31;;;;;;;4.40;1.58;;;;;;;25.45;63.48;100785.13;5051327;28;20182;-75
2021/08/04 11:27:57;;;;;;;2.67;1.67;;;;;;;25.59;61.06;100784.56;5053046;28;20044;-75